sensor_id;sensor_type;location;lat;lon;timestamp;pressure;altitude;pressure_sealevel;temperature
59339;BMP280;45117;50.960;5.500;2023-08-12T00:00:37;100850.44;;;21.22
59339;BMP280;45117;50.960;5.500;2023-08-12T00:03:04;100805.66;;;20.85
59339;BMP280;45117;50.960;5.500;2023-08-12T00:05:31;100832.28;;;21.05
59339;BMP280;45117;50.960;5.500;2023-08-12T00:07:58;100829.66;;;20.95
59339;BMP280;45117;50.960;5.500;2023-08-12T00:10:24;100883.44;;;21.34
59339;BMP280;45117;50.960;5.500;2023-08-12T00:12:51;100887.50;;;21.38
59339;BMP280;45117;50.960;5.500;2023-08-12T00:15:18;100805.34;;;20.83
59339;BMP280;45117;50.960;5.500;2023-08-12T00:17:46;100860.19;;;21.23
59339;BMP280;45117;50.960;5.500;2023-08-12T00:20:13;100792.06;;;20.76
59339;BMP280;45117;50.960;5.500;2023-08-12T00:22:40;100855.34;;;21.18
59339;BMP280;45117;50.960;5.500;2023-08-12T00:25:07;100767.94;;;20.59
59339;BMP280;45117;50.960;5.500;2023-08-12T00:27:35;100788.75;;;20.72
59339;BMP280;45117;50.960;5.500;2023-08-12T00:30:04;100772.84;;;20.70
59339;BMP280;45117;50.960;5.500;2023-08-12T00:32:31;100770.78;;;20.65
59339;BMP280;45117;50.960;5.500;2023-08-12T00:35:02;100790.94;;;20.82
59339;BMP280;45117;50.960;5.500;2023-08-12T00:37:30;100814.59;;;21.00
59339;BMP280;45117;50.960;5.500;2023-08-12T00:39:57;100808.19;;;21.03
59339;BMP280;45117;50.960;5.500;2023-08-12T00:42:24;100807.72;;;21.05
59339;BMP280;45117;50.960;5.500;2023-08-12T00:44:50;100789.53;;;20.87
59339;BMP280;45117;50.960;5.500;2023-08-12T00:47:17;100760.25;;;20.73
59339;BMP280;45117;50.960;5.500;2023-08-12T00:49:44;100749.97;;;20.68
59339;BMP280;45117;50.960;5.500;2023-08-12T00:52:27;100748.28;;;20.70
59339;BMP280;45117;50.960;5.500;2023-08-12T00:54:54;100819.47;;;21.11
59339;BMP280;45117;50.960;5.500;2023-08-12T00:57:21;100828.72;;;21.13
59339;BMP280;45117;50.960;5.500;2023-08-12T00:59:48;100814.59;;;21.00
59339;BMP280;45117;50.960;5.500;2023-08-12T01:10:23;100837.84;;;21.25
59339;BMP280;45117;50.960;5.500;2023-08-12T01:13:22;100741.59;;;20.56
59339;BMP280;45117;50.960;5.500;2023-08-12T01:16:15;100724.09;;;20.48
59339;BMP280;45117;50.960;5.500;2023-08-12T01:18:46;100743.00;;;20.67
59339;BMP280;45117;50.960;5.500;2023-08-12T01:21:33;100786.91;;;20.92
59339;BMP280;45117;50.960;5.500;2023-08-12T01:24:21;100796.78;;;21.05
59339;BMP280;45117;50.960;5.500;2023-08-12T01:26:51;100765.16;;;20.83
59339;BMP280;45117;50.960;5.500;2023-08-12T01:29:18;100711.38;;;20.45
59339;BMP280;45117;50.960;5.500;2023-08-12T01:31:49;100771.19;;;20.87
59339;BMP280;45117;50.960;5.500;2023-08-12T01:34:34;100782.56;;;21.01
59339;BMP280;45117;50.960;5.500;2023-08-12T01:37:04;100729.84;;;20.65
59339;BMP280;45117;50.960;5.500;2023-08-12T01:39:33;100742.66;;;20.74
59339;BMP280;45117;50.960;5.500;2023-08-12T01:42:02;100725.31;;;20.62
59339;BMP280;45117;50.960;5.500;2023-08-12T01:44:37;100792.00;;;21.00
59339;BMP280;45117;50.960;5.500;2023-08-12T01:47:27;100693.69;;;20.41
59339;BMP280;45117;50.960;5.500;2023-08-12T01:50:14;100704.50;;;20.50
59339;BMP280;45117;50.960;5.500;2023-08-12T01:53:16;100685.50;;;20.41
59339;BMP280;45117;50.960;5.500;2023-08-12T01:55:57;100689.94;;;20.38
59339;BMP280;45117;50.960;5.500;2023-08-12T01:58:37;100688.13;;;20.35
59339;BMP280;45117;50.960;5.500;2023-08-12T02:01:04;100780.13;;;21.03
59339;BMP280;45117;50.960;5.500;2023-08-12T02:03:39;100743.50;;;20.80
59339;BMP280;45117;50.960;5.500;2023-08-12T02:06:20;100671.69;;;20.44
59339;BMP280;45117;50.960;5.500;2023-08-12T02:08:47;100714.50;;;20.68
59339;BMP280;45117;50.960;5.500;2023-08-12T02:11:43;100720.81;;;20.74
59339;BMP280;45117;50.960;5.500;2023-08-12T02:17:02;100672.81;;;20.38
59339;BMP280;45117;50.960;5.500;2023-08-12T02:19:33;100715.28;;;20.68
59339;BMP280;45117;50.960;5.500;2023-08-12T02:22:01;100710.34;;;20.57
59339;BMP280;45117;50.960;5.500;2023-08-12T02:24:42;100685.78;;;20.43
59339;BMP280;45117;50.960;5.500;2023-08-12T02:27:27;100700.09;;;20.52
59339;BMP280;45117;50.960;5.500;2023-08-12T02:30:01;100691.25;;;20.43
59339;BMP280;45117;50.960;5.500;2023-08-12T02:32:54;100712.34;;;20.57
59339;BMP280;45117;50.960;5.500;2023-08-12T02:35:35;100691.25;;;20.43
59339;BMP280;45117;50.960;5.500;2023-08-12T02:38:02;100740.19;;;20.76
59339;BMP280;45117;50.960;5.500;2023-08-12T02:40:30;100677.50;;;20.37
59339;BMP280;45117;50.960;5.500;2023-08-12T02:43:24;100676.56;;;20.40
59339;BMP280;45117;50.960;5.500;2023-08-12T02:45:51;100732.19;;;20.72
59339;BMP280;45117;50.960;5.500;2023-08-12T02:48:18;100693.50;;;20.44
59339;BMP280;45117;50.960;5.500;2023-08-12T02:50:44;100651.06;;;20.14
59339;BMP280;45117;50.960;5.500;2023-08-12T02:53:11;100702.25;;;20.48
59339;BMP280;45117;50.960;5.500;2023-08-12T02:55:38;100709.69;;;20.62
59339;BMP280;45117;50.960;5.500;2023-08-12T02:58:06;100721.19;;;20.67
59339;BMP280;45117;50.960;5.500;2023-08-12T03:00:33;100619.91;;;20.06
59339;BMP280;45117;50.960;5.500;2023-08-12T03:02:59;100670.19;;;20.43
59339;BMP280;45117;50.960;5.500;2023-08-12T03:05:26;100659.63;;;20.36
59339;BMP280;45117;50.960;5.500;2023-08-12T03:07:53;100615.97;;;20.07
59339;BMP280;45117;50.960;5.500;2023-08-12T03:10:20;100700.75;;;20.62
59339;BMP280;45117;50.960;5.500;2023-08-12T03:12:46;100642.59;;;20.26
59339;BMP280;45117;50.960;5.500;2023-08-12T03:15:14;100667.91;;;20.42
59339;BMP280;45117;50.960;5.500;2023-08-12T03:17:42;100637.16;;;20.26
59339;BMP280;45117;50.960;5.500;2023-08-12T03:20:09;100645.34;;;20.26
59339;BMP280;45117;50.960;5.500;2023-08-12T03:22:36;100672.63;;;20.56
59339;BMP280;45117;50.960;5.500;2023-08-12T03:25:04;100681.38;;;20.60
59339;BMP280;45117;50.960;5.500;2023-08-12T03:27:31;100634.72;;;20.28
59339;BMP280;45117;50.960;5.500;2023-08-12T03:29:58;100631.97;;;20.28
59339;BMP280;45117;50.960;5.500;2023-08-12T03:32:26;100629.72;;;20.27
59339;BMP280;45117;50.960;5.500;2023-08-12T03:34:53;100628.19;;;20.26
59339;BMP280;45117;50.960;5.500;2023-08-12T03:37:19;100676.00;;;20.65
59339;BMP280;45117;50.960;5.500;2023-08-12T03:39:46;100674.69;;;20.61
59339;BMP280;45117;50.960;5.500;2023-08-12T03:42:13;100597.00;;;20.12
59339;BMP280;45117;50.960;5.500;2023-08-12T03:44:42;100640.44;;;20.45
59339;BMP280;45117;50.960;5.500;2023-08-12T03:47:08;100561.97;;;19.96
59339;BMP280;45117;50.960;5.500;2023-08-12T03:49:37;100641.59;;;20.53
59339;BMP280;45117;50.960;5.500;2023-08-12T03:52:04;100595.59;;;20.17
59339;BMP280;45117;50.960;5.500;2023-08-12T03:54:32;100629.06;;;20.47
59339;BMP280;45117;50.960;5.500;2023-08-12T03:56:59;100562.38;;;20.04
59339;BMP280;45117;50.960;5.500;2023-08-12T03:59:26;100551.06;;;19.96
59339;BMP280;45117;50.960;5.500;2023-08-12T04:01:52;100610.25;;;20.34
59339;BMP280;45117;50.960;5.500;2023-08-12T04:04:19;100562.56;;;20.00
59339;BMP280;45117;50.960;5.500;2023-08-12T04:06:48;100621.63;;;20.47
59339;BMP280;45117;50.960;5.500;2023-08-12T04:09:17;100563.03;;;19.98
59339;BMP280;45117;50.960;5.500;2023-08-12T04:11:47;100544.91;;;19.95
59339;BMP280;45117;50.960;5.500;2023-08-12T04:14:31;100603.19;;;20.42
59339;BMP280;45117;50.960;5.500;2023-08-12T04:16:59;100543.59;;;20.06
59339;BMP280;45117;50.960;5.500;2023-08-12T04:19:27;100595.03;;;20.42
59339;BMP280;45117;50.960;5.500;2023-08-12T04:21:56;100624.28;;;20.56
59339;BMP280;45117;50.960;5.500;2023-08-12T04:24:22;100623.88;;;20.63
59339;BMP280;45117;50.960;5.500;2023-08-12T04:26:51;100624.44;;;20.68
59339;BMP280;45117;50.960;5.500;2023-08-12T04:39:54;100573.97;;;20.28
59339;BMP280;45117;50.960;5.500;2023-08-12T04:42:21;100617.13;;;20.59
59339;BMP280;45117;50.960;5.500;2023-08-12T04:44:54;100636.69;;;20.72
59339;BMP280;45117;50.960;5.500;2023-08-12T04:47:27;100529.88;;;20.00
59339;BMP280;45117;50.960;5.500;2023-08-12T04:50:05;100534.38;;;20.03
59339;BMP280;45117;50.960;5.500;2023-08-12T04:52:36;100577.63;;;20.25
59339;BMP280;45117;50.960;5.500;2023-08-12T04:55:07;100559.84;;;20.15
59339;BMP280;45117;50.960;5.500;2023-08-12T04:57:38;100542.56;;;20.03
59339;BMP280;45117;50.960;5.500;2023-08-12T05:00:08;100527.88;;;19.86
59339;BMP280;45117;50.960;5.500;2023-08-12T05:02:35;100564.38;;;20.18
59339;BMP280;45117;50.960;5.500;2023-08-12T05:05:05;100527.78;;;19.95
59339;BMP280;45117;50.960;5.500;2023-08-12T05:08:05;100538.50;;;19.98
59339;BMP280;45117;50.960;5.500;2023-08-12T05:10:36;100532.97;;;19.93
59339;BMP280;45117;50.960;5.500;2023-08-12T05:13:29;100586.38;;;20.29
59339;BMP280;45117;50.960;5.500;2023-08-12T05:15:59;100566.25;;;20.12
59339;BMP280;45117;50.960;5.500;2023-08-12T05:18:33;100528.34;;;19.84
59339;BMP280;45117;50.960;5.500;2023-08-12T05:21:16;100558.72;;;20.07
59339;BMP280;45117;50.960;5.500;2023-08-12T05:23:43;100619.75;;;20.53
59339;BMP280;45117;50.960;5.500;2023-08-12T05:26:12;100530.78;;;19.82
59339;BMP280;45117;50.960;5.500;2023-08-12T05:28:43;100571.50;;;20.15
59339;BMP280;45117;50.960;5.500;2023-08-12T05:31:13;100514.34;;;19.77
59339;BMP280;45117;50.960;5.500;2023-08-12T05:33:40;100575.56;;;20.20
59339;BMP280;45117;50.960;5.500;2023-08-12T05:36:13;100590.00;;;20.26
59339;BMP280;45117;50.960;5.500;2023-08-12T05:38:43;100509.91;;;19.64
59339;BMP280;45117;50.960;5.500;2023-08-12T05:41:15;100521.38;;;19.68
59339;BMP280;45117;50.960;5.500;2023-08-12T05:43:47;100524.53;;;19.67
59339;BMP280;45117;50.960;5.500;2023-08-12T05:46:15;100620.59;;;20.30
59339;BMP280;45117;50.960;5.500;2023-08-12T05:48:44;100530.22;;;19.78
59339;BMP280;45117;50.960;5.500;2023-08-12T05:51:14;100518.84;;;19.65
59339;BMP280;45117;50.960;5.500;2023-08-12T05:53:41;100555.97;;;19.92
59339;BMP280;45117;50.960;5.500;2023-08-12T05:56:07;100559.38;;;20.02
59339;BMP280;45117;50.960;5.500;2023-08-12T05:58:36;100503.41;;;19.62
59339;BMP280;45117;50.960;5.500;2023-08-12T06:01:03;100482.25;;;19.57
59339;BMP280;45117;50.960;5.500;2023-08-12T06:03:30;100562.09;;;20.16
59339;BMP280;45117;50.960;5.500;2023-08-12T06:05:59;100565.78;;;20.28
59339;BMP280;45117;50.960;5.500;2023-08-12T06:08:30;100495.47;;;19.73
59339;BMP280;45117;50.960;5.500;2023-08-12T06:11:00;100489.44;;;19.69
59339;BMP280;45117;50.960;5.500;2023-08-12T06:13:32;100535.03;;;19.98
59339;BMP280;45117;50.960;5.500;2023-08-12T06:16:02;100579.88;;;20.26
59339;BMP280;45117;50.960;5.500;2023-08-12T06:18:34;100491.66;;;19.71
59339;BMP280;45117;50.960;5.500;2023-08-12T06:21:03;100594.06;;;20.45
59339;BMP280;45117;50.960;5.500;2023-08-12T06:23:39;100586.84;;;20.42
59339;BMP280;45117;50.960;5.500;2023-08-12T06:26:06;100572.25;;;20.30
59339;BMP280;45117;50.960;5.500;2023-08-12T06:28:35;100513.41;;;19.94
59339;BMP280;45117;50.960;5.500;2023-08-12T06:31:06;100556.94;;;20.18
59339;BMP280;45117;50.960;5.500;2023-08-12T06:33:33;100580.25;;;20.34
59339;BMP280;45117;50.960;5.500;2023-08-12T06:36:02;100523.25;;;19.92
59339;BMP280;45117;50.960;5.500;2023-08-12T06:38:29;100523.44;;;19.88
59339;BMP280;45117;50.960;5.500;2023-08-12T06:40:56;100549.88;;;20.12
59339;BMP280;45117;50.960;5.500;2023-08-12T06:43:23;100531.56;;;19.97
59339;BMP280;45117;50.960;5.500;2023-08-12T06:45:49;100567.09;;;20.18
59339;BMP280;45117;50.960;5.500;2023-08-12T06:48:18;100580.44;;;20.30
59339;BMP280;45117;50.960;5.500;2023-08-12T06:50:44;100527.59;;;19.98
59339;BMP280;45117;50.960;5.500;2023-08-12T06:53:10;100536.81;;;20.01
59339;BMP280;45117;50.960;5.500;2023-08-12T06:58:24;100541.63;;;20.06
59339;BMP280;45117;50.960;5.500;2023-08-12T07:00:55;100590.69;;;20.36
59339;BMP280;45117;50.960;5.500;2023-08-12T07:03:28;100585.16;;;20.30
59339;BMP280;45117;50.960;5.500;2023-08-12T07:06:12;100499.41;;;19.72
59339;BMP280;45117;50.960;5.500;2023-08-12T07:08:41;100555.91;;;20.16
59339;BMP280;45117;50.960;5.500;2023-08-12T07:11:08;100579.88;;;20.41
59339;BMP280;45117;50.960;5.500;2023-08-12T07:13:35;100555.91;;;20.30
59339;BMP280;45117;50.960;5.500;2023-08-12T07:16:02;100598.97;;;20.56
59339;BMP280;45117;50.960;5.500;2023-08-12T07:18:31;100584.84;;;20.57
59339;BMP280;45117;50.960;5.500;2023-08-12T07:21:00;100524.41;;;20.15
59339;BMP280;45117;50.960;5.500;2023-08-12T07:23:39;100500.44;;;20.04
59339;BMP280;45117;50.960;5.500;2023-08-12T07:26:15;100508.63;;;20.19
59339;BMP280;45117;50.960;5.500;2023-08-12T07:29:04;100499.69;;;20.04
59339;BMP280;45117;50.960;5.500;2023-08-12T07:31:51;100509.00;;;20.12
59339;BMP280;45117;50.960;5.500;2023-08-12T07:34:29;100576.38;;;20.70
59339;BMP280;45117;50.960;5.500;2023-08-12T07:37:29;100585.34;;;20.91
59339;BMP280;45117;50.960;5.500;2023-08-12T07:39:59;100521.06;;;20.55
59339;BMP280;45117;50.960;5.500;2023-08-12T07:42:32;100559.41;;;20.81
59339;BMP280;45117;50.960;5.500;2023-08-12T07:45:29;100558.38;;;20.78
59339;BMP280;45117;50.960;5.500;2023-08-12T07:51:31;100518.28;;;20.70
59339;BMP280;45117;50.960;5.500;2023-08-12T07:53:58;100572.22;;;21.10
59339;BMP280;45117;50.960;5.500;2023-08-12T07:56:28;100487.97;;;20.47
59339;BMP280;45117;50.960;5.500;2023-08-12T07:58:54;100533.31;;;20.80
59339;BMP280;45117;50.960;5.500;2023-08-12T08:01:59;100551.31;;;21.07
59339;BMP280;45117;50.960;5.500;2023-08-12T08:04:39;100537.50;;;20.95
59339;BMP280;45117;50.960;5.500;2023-08-12T08:07:08;100550.16;;;21.13
59339;BMP280;45117;50.960;5.500;2023-08-12T08:09:34;100570.72;;;21.29
59339;BMP280;45117;50.960;5.500;2023-08-12T08:12:03;100504.28;;;20.97
59339;BMP280;45117;50.960;5.500;2023-08-12T08:14:30;100537.78;;;20.97
59339;BMP280;45117;50.960;5.500;2023-08-12T08:16:56;100531.94;;;21.05
59339;BMP280;45117;50.960;5.500;2023-08-12T08:19:27;100588.44;;;21.39
59339;BMP280;45117;50.960;5.500;2023-08-12T08:21:56;100500.72;;;20.91
59339;BMP280;45117;50.960;5.500;2023-08-12T08:24:25;100549.13;;;21.11
59339;BMP280;45117;50.960;5.500;2023-08-12T08:26:51;100553.91;;;21.16
59339;BMP280;45117;50.960;5.500;2023-08-12T08:29:21;100517.06;;;20.71
59339;BMP280;45117;50.960;5.500;2023-08-12T08:31:54;100508.34;;;20.67
59339;BMP280;45117;50.960;5.500;2023-08-12T08:34:25;100550.41;;;20.95
59339;BMP280;45117;50.960;5.500;2023-08-12T08:36:52;100570.56;;;21.18
59339;BMP280;45117;50.960;5.500;2023-08-12T08:39:19;100604.28;;;21.35
59339;BMP280;45117;50.960;5.500;2023-08-12T08:41:48;100595.03;;;21.27
59339;BMP280;45117;50.960;5.500;2023-08-12T08:44:15;100560.44;;;21.04
59339;BMP280;45117;50.960;5.500;2023-08-12T08:46:43;100569.94;;;21.08
59339;BMP280;45117;50.960;5.500;2023-08-12T08:49:12;100540.25;;;20.95
59339;BMP280;45117;50.960;5.500;2023-08-12T08:51:42;100524.41;;;21.00
59339;BMP280;45117;50.960;5.500;2023-08-12T08:54:11;100529.25;;;21.10
59339;BMP280;45117;50.960;5.500;2023-08-12T08:56:48;100531.72;;;21.08
59339;BMP280;45117;50.960;5.500;2023-08-12T08:59:19;100591.16;;;21.59
59339;BMP280;45117;50.960;5.500;2023-08-12T09:01:48;100607.41;;;21.89
59339;BMP280;45117;50.960;5.500;2023-08-12T09:04:20;100584.22;;;21.84
59339;BMP280;45117;50.960;5.500;2023-08-12T09:06:48;100523.19;;;21.47
59339;BMP280;45117;50.960;5.500;2023-08-12T09:09:16;100531.00;;;21.54
59339;BMP280;45117;50.960;5.500;2023-08-12T09:11:58;100571.91;;;21.94
59339;BMP280;45117;50.960;5.500;2023-08-12T09:14:33;100543.19;;;21.53
59339;BMP280;45117;50.960;5.500;2023-08-12T09:17:01;100596.66;;;21.85
59339;BMP280;45117;50.960;5.500;2023-08-12T09:19:28;100620.97;;;22.04
59339;BMP280;45117;50.960;5.500;2023-08-12T09:21:55;100540.88;;;21.46
59339;BMP280;45117;50.960;5.500;2023-08-12T09:24:24;100543.25;;;21.38
59339;BMP280;45117;50.960;5.500;2023-08-12T09:26:55;100573.66;;;21.46
59339;BMP280;45117;50.960;5.500;2023-08-12T09:29:29;100609.53;;;21.79
59339;BMP280;45117;50.960;5.500;2023-08-12T09:32:09;100529.06;;;21.14
59339;BMP280;45117;50.960;5.500;2023-08-12T09:34:37;100629.00;;;21.87
59339;BMP280;45117;50.960;5.500;2023-08-12T09:37:04;100614.16;;;21.93
59339;BMP280;45117;50.960;5.500;2023-08-12T09:39:31;100595.66;;;21.83
59339;BMP280;45117;50.960;5.500;2023-08-12T09:41:58;100622.59;;;22.16
59339;BMP280;45117;50.960;5.500;2023-08-12T09:44:26;100533.78;;;21.59
59339;BMP280;45117;50.960;5.500;2023-08-12T09:46:56;100583.66;;;22.01
59339;BMP280;45117;50.960;5.500;2023-08-12T09:49:25;100559.84;;;22.07
59339;BMP280;45117;50.960;5.500;2023-08-12T09:51:53;100537.69;;;22.05
59339;BMP280;45117;50.960;5.500;2023-08-12T09:54:21;100626.25;;;22.70
59339;BMP280;45117;50.960;5.500;2023-08-12T09:56:52;100559.28;;;22.34
59339;BMP280;45117;50.960;5.500;2023-08-12T09:59:24;100546.13;;;22.01
59339;BMP280;45117;50.960;5.500;2023-08-12T10:01:53;100602.41;;;22.13
59339;BMP280;45117;50.960;5.500;2023-08-12T10:04:22;100580.53;;;21.87
59339;BMP280;45117;50.960;5.500;2023-08-12T10:06:51;100625.22;;;22.05
59339;BMP280;45117;50.960;5.500;2023-08-12T10:09:19;100592.22;;;22.14
59339;BMP280;45117;50.960;5.500;2023-08-12T10:11:46;100617.06;;;23.21
59339;BMP280;45117;50.960;5.500;2023-08-12T10:14:14;100593.03;;;22.94
59339;BMP280;45117;50.960;5.500;2023-08-12T10:16:45;100590.66;;;23.18
59339;BMP280;45117;50.960;5.500;2023-08-12T10:19:14;100598.16;;;23.23
59339;BMP280;45117;50.960;5.500;2023-08-12T10:21:43;100631.94;;;23.04
59339;BMP280;45117;50.960;5.500;2023-08-12T10:24:13;100625.22;;;23.10
59339;BMP280;45117;50.960;5.500;2023-08-12T10:26:42;100578.03;;;22.78
59339;BMP280;45117;50.960;5.500;2023-08-12T10:29:09;100595.56;;;23.03
59339;BMP280;45117;50.960;5.500;2023-08-12T10:31:38;100644.97;;;23.96
59339;BMP280;45117;50.960;5.500;2023-08-12T10:34:05;100572.81;;;23.51
59339;BMP280;45117;50.960;5.500;2023-08-12T10:36:32;100593.84;;;24.26
59339;BMP280;45117;50.960;5.500;2023-08-12T10:39:00;100630.22;;;24.49
59339;BMP280;45117;50.960;5.500;2023-08-12T10:45:54;100529.69;;;23.35
59339;BMP280;45117;50.960;5.500;2023-08-12T10:48:25;100535.38;;;23.25
59339;BMP280;45117;50.960;5.500;2023-08-12T10:50:58;100592.44;;;23.27
59339;BMP280;45117;50.960;5.500;2023-08-12T10:53:31;100550.69;;;22.89
59339;BMP280;45117;50.960;5.500;2023-08-12T10:56:01;100564.28;;;22.73
59339;BMP280;45117;50.960;5.500;2023-08-12T10:58:44;100561.22;;;22.65
59339;BMP280;45117;50.960;5.500;2023-08-12T11:01:25;100560.75;;;22.24
59339;BMP280;45117;50.960;5.500;2023-08-12T11:03:52;100564.00;;;22.28
59339;BMP280;45117;50.960;5.500;2023-08-12T11:06:20;100658.28;;;22.95
59339;BMP280;45117;50.960;5.500;2023-08-12T11:09:22;100657.44;;;22.78
59339;BMP280;45117;50.960;5.500;2023-08-12T11:11:56;100581.44;;;21.79
59339;BMP280;45117;50.960;5.500;2023-08-12T11:14:23;100606.97;;;21.96
59339;BMP280;45117;50.960;5.500;2023-08-12T11:17:13;100660.97;;;22.27
59339;BMP280;45117;50.960;5.500;2023-08-12T11:19:40;100656.25;;;22.53
59339;BMP280;45117;50.960;5.500;2023-08-12T11:22:07;100574.78;;;22.43
59339;BMP280;45117;50.960;5.500;2023-08-12T11:24:35;100606.88;;;22.37
59339;BMP280;45117;50.960;5.500;2023-08-12T11:27:02;100662.25;;;22.57
59339;BMP280;45117;50.960;5.500;2023-08-12T11:29:29;100613.06;;;21.85
59339;BMP280;45117;50.960;5.500;2023-08-12T11:31:56;100636.47;;;21.86
59339;BMP280;45117;50.960;5.500;2023-08-12T11:34:24;100605.84;;;22.08
59339;BMP280;45117;50.960;5.500;2023-08-12T11:36:51;100588.25;;;22.46
59339;BMP280;45117;50.960;5.500;2023-08-12T11:39:18;100653.84;;;23.04
59339;BMP280;45117;50.960;5.500;2023-08-12T11:41:45;100570.00;;;22.32
59339;BMP280;45117;50.960;5.500;2023-08-12T11:44:12;100597.25;;;22.52
59339;BMP280;45117;50.960;5.500;2023-08-12T11:46:41;100600.88;;;22.70
59339;BMP280;45117;50.960;5.500;2023-08-12T11:49:08;100633.06;;;23.28
59339;BMP280;45117;50.960;5.500;2023-08-12T11:51:36;100560.34;;;23.39
59339;BMP280;45117;50.960;5.500;2023-08-12T11:54:03;100575.63;;;23.84
59339;BMP280;45117;50.960;5.500;2023-08-12T11:56:31;100572.38;;;23.91
59339;BMP280;45117;50.960;5.500;2023-08-12T11:58:58;100647.97;;;24.43
59339;BMP280;45117;50.960;5.500;2023-08-12T12:01:27;100629.75;;;24.40
59339;BMP280;45117;50.960;5.500;2023-08-12T12:03:55;100655.44;;;24.76
59339;BMP280;45117;50.960;5.500;2023-08-12T12:06:29;100663.44;;;24.79
59339;BMP280;45117;50.960;5.500;2023-08-12T12:09:00;100613.16;;;24.95
59339;BMP280;45117;50.960;5.500;2023-08-12T12:11:27;100621.19;;;24.93
59339;BMP280;45117;50.960;5.500;2023-08-12T12:13:54;100587.66;;;24.95
59339;BMP280;45117;50.960;5.500;2023-08-12T12:16:25;100590.75;;;25.38
59339;BMP280;45117;50.960;5.500;2023-08-12T12:18:57;100640.31;;;25.62
59339;BMP280;45117;50.960;5.500;2023-08-12T12:21:26;100639.00;;;25.33
59339;BMP280;45117;50.960;5.500;2023-08-12T12:23:59;100600.50;;;25.69
59339;BMP280;45117;50.960;5.500;2023-08-12T12:26:28;100648.19;;;25.47
59339;BMP280;45117;50.960;5.500;2023-08-12T12:29:01;100651.97;;;25.39
59339;BMP280;45117;50.960;5.500;2023-08-12T12:31:28;100649.59;;;25.07
59339;BMP280;45117;50.960;5.500;2023-08-12T12:33:58;100645.91;;;25.51
59339;BMP280;45117;50.960;5.500;2023-08-12T12:36:24;100701.72;;;25.87
59339;BMP280;45117;50.960;5.500;2023-08-12T12:38:51;100670.25;;;25.77
59339;BMP280;45117;50.960;5.500;2023-08-12T12:41:22;100620.34;;;25.62
59339;BMP280;45117;50.960;5.500;2023-08-12T12:43:51;100657.19;;;25.83
59339;BMP280;45117;50.960;5.500;2023-08-12T12:46:18;100692.00;;;26.22
59339;BMP280;45117;50.960;5.500;2023-08-12T12:48:46;100657.63;;;25.98
59339;BMP280;45117;50.960;5.500;2023-08-12T12:51:13;100626.44;;;25.85
59339;BMP280;45117;50.960;5.500;2023-08-12T12:53:41;100708.03;;;26.72
59339;BMP280;45117;50.960;5.500;2023-08-12T12:56:08;100653.72;;;26.18
59339;BMP280;45117;50.960;5.500;2023-08-12T12:58:37;100703.28;;;26.72
59339;BMP280;45117;50.960;5.500;2023-08-12T13:01:09;100650.91;;;26.24
59339;BMP280;45117;50.960;5.500;2023-08-12T13:03:36;100623.38;;;25.94
59339;BMP280;45117;50.960;5.500;2023-08-12T13:06:17;100685.56;;;26.08
59339;BMP280;45117;50.960;5.500;2023-08-12T13:08:44;100696.34;;;26.36
59339;BMP280;45117;50.960;5.500;2023-08-12T13:11:17;100668.88;;;26.30
59339;BMP280;45117;50.960;5.500;2023-08-12T13:13:47;100663.16;;;26.77
59339;BMP280;45117;50.960;5.500;2023-08-12T13:16:16;100682.00;;;26.19
59339;BMP280;45117;50.960;5.500;2023-08-12T13:18:43;100684.47;;;26.76
59339;BMP280;45117;50.960;5.500;2023-08-12T13:21:13;100643.66;;;26.21
59339;BMP280;45117;50.960;5.500;2023-08-12T13:23:40;100667.63;;;26.31
59339;BMP280;45117;50.960;5.500;2023-08-12T13:26:08;100625.31;;;26.29
59339;BMP280;45117;50.960;5.500;2023-08-12T13:28:35;100715.75;;;26.49
59339;BMP280;45117;50.960;5.500;2023-08-12T13:31:03;100656.06;;;26.33
59339;BMP280;45117;50.960;5.500;2023-08-12T13:33:33;100705.63;;;26.87
59339;BMP280;45117;50.960;5.500;2023-08-12T13:36:00;100655.00;;;26.12
59339;BMP280;45117;50.960;5.500;2023-08-12T13:38:27;100670.88;;;26.78
59339;BMP280;45117;50.960;5.500;2023-08-12T13:40:55;100685.59;;;26.32
59339;BMP280;45117;50.960;5.500;2023-08-12T13:43:24;100667.66;;;26.26
59339;BMP280;45117;50.960;5.500;2023-08-12T13:45:51;100625.09;;;26.27
59339;BMP280;45117;50.960;5.500;2023-08-12T13:48:19;100671.72;;;26.92
59339;BMP280;45117;50.960;5.500;2023-08-12T13:50:46;100668.84;;;26.60
59339;BMP280;45117;50.960;5.500;2023-08-12T13:53:14;100667.63;;;26.31
59339;BMP280;45117;50.960;5.500;2023-08-12T13:55:41;100711.56;;;26.72
59339;BMP280;45117;50.960;5.500;2023-08-12T13:58:08;100701.09;;;26.65
59339;BMP280;45117;50.960;5.500;2023-08-12T14:00:35;100662.41;;;26.76
59339;BMP280;45117;50.960;5.500;2023-08-12T14:03:17;100706.75;;;27.40
59339;BMP280;45117;50.960;5.500;2023-08-12T14:06:03;100722.81;;;26.99
59339;BMP280;45117;50.960;5.500;2023-08-12T14:08:35;100638.31;;;25.68
59339;BMP280;45117;50.960;5.500;2023-08-12T14:11:05;100689.25;;;26.46
59339;BMP280;45117;50.960;5.500;2023-08-12T14:14:14;100686.63;;;26.29
59339;BMP280;45117;50.960;5.500;2023-08-12T14:16:58;100654.94;;;26.47
59339;BMP280;45117;50.960;5.500;2023-08-12T14:19:33;100720.94;;;25.93
59339;BMP280;45117;50.960;5.500;2023-08-12T14:22:04;100640.13;;;25.02
59339;BMP280;45117;50.960;5.500;2023-08-12T14:24:31;100683.81;;;25.69
59339;BMP280;45117;50.960;5.500;2023-08-12T14:27:13;100702.59;;;26.66
59339;BMP280;45117;50.960;5.500;2023-08-12T14:29:52;100712.22;;;26.78
59339;BMP280;45117;50.960;5.500;2023-08-12T14:32:19;100721.09;;;26.41
59339;BMP280;45117;50.960;5.500;2023-08-12T14:34:45;100667.34;;;26.05
59339;BMP280;45117;50.960;5.500;2023-08-12T14:37:13;100660.44;;;25.46
59339;BMP280;45117;50.960;5.500;2023-08-12T14:39:41;100645.44;;;25.88
59339;BMP280;45117;50.960;5.500;2023-08-12T14:42:07;100713.69;;;26.85
59339;BMP280;45117;50.960;5.500;2023-08-12T14:44:35;100656.25;;;26.40
59339;BMP280;45117;50.960;5.500;2023-08-12T14:47:02;100719.59;;;26.11
59339;BMP280;45117;50.960;5.500;2023-08-12T14:49:29;100711.47;;;25.42